createdAt,value
2019-01-21T00:01:36.545Z,19.07
2019-01-21T00:04:17.700Z,19.10
2019-01-21T00:06:58.379Z,21.07
2019-01-21T00:09:39.155Z,19.73
2019-01-21T00:12:19.820Z,19.97
2019-01-21T00:15:00.748Z,20.03
2019-01-21T00:17:41.675Z,19.30
2019-01-21T00:20:22.645Z,20.27
2019-01-21T00:23:03.660Z,22.60
2019-01-21T00:25:44.243Z,20.03
2019-01-21T00:28:24.861Z,18.97
2019-01-21T00:31:05.933Z,18.80
2019-01-21T00:33:46.992Z,18.80
2019-01-21T00:36:28.145Z,17.00
2019-01-21T00:39:08.627Z,19.57
2019-01-21T00:41:49.575Z,17.67
2019-01-21T00:44:30.101Z,19.07
2019-01-21T00:47:10.681Z,18.67
2019-01-21T00:49:51.393Z,17.97
2019-01-21T00:52:32.220Z,16.70
2019-01-21T00:55:12.675Z,18.43
2019-01-21T00:57:53.569Z,17.77
2019-01-21T01:00:34.233Z,18.50
2019-01-21T01:03:15.059Z,16.57
2019-01-21T01:05:55.819Z,19.53
2019-01-21T01:08:36.484Z,18.50
2019-01-21T01:11:17.411Z,16.83
2019-01-21T01:13:58.147Z,18.87
2019-01-21T01:16:39.015Z,15.50
2019-01-21T01:19:19.682Z,19.47
2019-01-21T01:22:00.257Z,21.03
2019-01-21T01:24:40.941Z,18.07
2019-01-21T01:27:21.466Z,19.67
2019-01-21T01:30:02.401Z,16.30
2019-01-21T01:32:43.395Z,21.90
2019-01-21T01:35:24.447Z,14.50
2019-01-21T01:38:04.783Z,20.00
2019-01-21T01:40:45.327Z,16.30
2019-01-21T01:43:26.238Z,16.43
2019-01-21T01:46:07.219Z,19.03
2019-01-21T01:48:47.768Z,17.57
2019-01-21T01:51:28.896Z,14.33
2019-01-21T01:54:09.551Z,15.90
2019-01-21T01:56:50.205Z,16.47
2019-01-21T01:59:30.540Z,14.20
2019-01-21T02:02:09.415Z,16.30
2019-01-21T02:04:50.899Z,16.63
2019-01-21T02:07:31.731Z,17.70
2019-01-21T02:10:12.611Z,19.13
2019-01-21T02:12:53.347Z,16.87
2019-01-21T02:15:34.293Z,16.83
2019-01-21T02:18:15.144Z,16.07
2019-01-21T02:20:56.116Z,17.27
2019-01-21T02:23:37.019Z,16.23
2019-01-21T02:26:17.705Z,16.60
2019-01-21T02:28:58.306Z,17.30
2019-01-21T02:31:38.890Z,16.13
2019-01-21T02:34:19.530Z,16.27
2019-01-21T02:37:00.182Z,16.27
2019-01-21T02:39:41.193Z,19.27
2019-01-21T02:42:22.044Z,17.70
2019-01-21T02:45:02.941Z,19.00
2019-01-21T02:47:43.841Z,17.17
2019-01-21T02:50:24.505Z,16.23
2019-01-21T02:53:06.182Z,15.37
2019-01-21T02:55:47.084Z,16.53
2019-01-21T02:58:28.054Z,17.80
2019-01-21T03:01:08.707Z,18.30
2019-01-21T03:03:49.728Z,18.33
2019-01-21T03:06:30.912Z,18.43
2019-01-21T03:09:12.237Z,19.70
2019-01-21T03:11:54.191Z,18.60
2019-01-21T03:15:00.474Z,18.80
2019-01-21T03:17:32.366Z,15.83
2019-01-21T03:20:06.972Z,16.87
2019-01-21T03:22:50.767Z,18.60
2019-01-21T03:25:22.570Z,16.83
2019-01-21T03:28:00.111Z,18.67
2019-01-21T03:30:38.057Z,17.50
2019-01-21T03:33:27.974Z,17.07
2019-01-21T03:36:17.746Z,13.57
2019-01-21T03:39:10.638Z,14.10
2019-01-21T03:42:06.369Z,15.93
2019-01-21T03:44:46.580Z,17.27
2019-01-21T03:47:23.926Z,17.50
2019-01-21T03:50:15.820Z,15.77
2019-01-21T03:52:53.139Z,18.37
2019-01-21T03:55:21.784Z,17.20
2019-01-21T03:57:56.229Z,17.77
2019-01-21T04:00:28.154Z,16.37
2019-01-21T04:03:32.092Z,17.23
2019-01-21T04:06:12.908Z,20.10
2019-01-21T04:08:53.310Z,17.67
2019-01-21T04:11:27.846Z,18.63
2019-01-21T04:14:20.603Z,15.63
2019-01-21T04:17:07.435Z,16.10
2019-01-21T04:19:44.790Z,17.37
2019-01-21T04:22:22.584Z,19.53
2019-01-21T04:25:03.332Z,17.23
2019-01-21T04:27:34.989Z,22.90
2019-01-21T04:30:09.560Z,18.37
2019-01-21T04:33:18.184Z,17.03
2019-01-21T04:36:06.567Z,21.57
2019-01-21T04:38:53.496Z,18.10
2019-01-21T04:41:41.546Z,19.00
2019-01-21T04:44:13.177Z,18.47
2019-01-21T04:46:44.765Z,20.37
2019-01-21T04:49:31.875Z,17.07
2019-01-21T04:52:12.385Z,19.13
2019-01-21T04:54:46.608Z,18.67
2019-01-21T04:57:43.894Z,20.37
2019-01-21T05:00:24.570Z,18.53
2019-01-21T05:03:12.802Z,20.50
2019-01-21T05:05:59.197Z,20.37
2019-01-21T05:08:57.056Z,22.33
2019-01-21T05:11:43.674Z,19.53
2019-01-21T05:14:35.087Z,16.80
2019-01-21T05:17:27.839Z,21.87
2019-01-21T05:20:21.477Z,19.47
2019-01-21T05:23:28.096Z,18.83
2019-01-21T05:26:08.432Z,20.17
2019-01-21T05:29:13.613Z,19.00
2019-01-21T05:31:51.385Z,19.77
2019-01-21T05:34:41.262Z,20.30
2019-01-21T05:37:12.899Z,19.97
2019-01-21T05:40:11.715Z,23.70
2019-01-21T05:43:03.521Z,20.10
2019-01-21T05:45:56.269Z,23.30
2019-01-21T05:48:30.969Z,20.10
2019-01-21T05:51:22.196Z,21.67
2019-01-21T05:54:28.551Z,20.03
2019-01-21T05:57:17.987Z,20.83
2019-01-21T05:59:55.065Z,22.00
2019-01-21T06:02:32.394Z,20.63
2019-01-21T06:05:19.143Z,18.70
2019-01-21T06:07:53.471Z,22.17
2019-01-21T06:10:47.723Z,20.30
2019-01-21T06:13:46.669Z,19.80
2019-01-21T06:16:40.895Z,20.97
2019-01-21T06:19:36.077Z,20.13
2019-01-21T06:22:19.873Z,22.33
2019-01-21T06:25:21.890Z,23.93
2019-01-21T06:28:20.445Z,22.10
2019-01-21T06:31:01.088Z,22.50
2019-01-21T06:33:32.752Z,20.53
2019-01-21T06:36:16.153Z,19.60
2019-01-21T06:39:10.409Z,21.67
2019-01-21T06:41:47.756Z,19.93
2019-01-21T06:44:43.470Z,22.70
2019-01-21T06:47:31.631Z,19.47
2019-01-21T06:50:29.171Z,20.07
2019-01-21T06:53:00.744Z,23.10
2019-01-21T06:55:47.393Z,20.50
2019-01-21T06:58:33.952Z,22.73
2019-01-21T07:01:05.514Z,21.40
2019-01-21T07:03:46.101Z,21.17
2019-01-21T07:06:29.500Z,22.03
2019-01-21T07:09:07.018Z,20.83
2019-01-21T07:11:41.423Z,20.47
2019-01-21T07:14:30.416Z,16.50
2019-01-21T07:17:15.878Z,23.13
2019-01-21T07:19:47.522Z,21.20
2019-01-21T07:25:19.582Z,21.93
2019-01-21T07:28:03.065Z,24.87
2019-01-21T07:30:59.037Z,23.23
2019-01-21T07:33:51.687Z,22.60
2019-01-21T07:36:49.148Z,23.83
2019-01-21T07:40:11.860Z,21.37
2019-01-21T07:42:46.102Z,21.27
2019-01-21T07:45:23.284Z,22.33
2019-01-21T07:48:12.858Z,25.10
2019-01-21T07:50:53.110Z,21.97
2019-01-21T07:53:27.545Z,20.27
2019-01-21T07:56:18.553Z,28.97
2019-01-21T07:59:07.999Z,23.67
2019-01-21T08:01:45.437Z,27.67
2019-01-21T08:04:28.431Z,26.47
2019-01-21T08:07:05.774Z,23.73
2019-01-21T08:10:06.239Z,23.57
2019-01-21T08:12:37.786Z,22.93
2019-01-21T08:15:12.125Z,27.97
2019-01-21T08:18:02.103Z,28.03
2019-01-21T08:20:36.564Z,25.70
2019-01-21T08:23:16.839Z,22.90
2019-01-21T08:26:03.474Z,27.03
2019-01-21T08:28:40.958Z,25.87
2019-01-21T08:31:18.375Z,24.33
2019-01-21T08:33:56.038Z,25.40
2019-01-21T08:36:36.409Z,24.57
2019-01-21T08:39:17.046Z,25.27
2019-01-21T08:42:12.373Z,26.03
2019-01-21T08:44:52.719Z,24.17
2019-01-21T08:47:24.378Z,26.70
2019-01-21T08:50:01.608Z,24.23
2019-01-21T08:52:49.715Z,24.57
2019-01-21T08:55:39.681Z,23.90
2019-01-21T08:58:20.008Z,22.80
2019-01-21T09:00:54.383Z,23.10
2019-01-21T09:03:45.250Z,21.93
2019-01-21T09:06:19.539Z,23.77
2019-01-21T09:09:07.757Z,20.17
2019-01-21T09:11:44.794Z,23.57
2019-01-21T09:14:34.533Z,23.83
2019-01-21T09:17:11.674Z,21.50
2019-01-21T09:19:49.171Z,25.37
2019-01-21T09:22:22.687Z,23.23
2019-01-21T09:25:09.144Z,21.33
2019-01-21T09:27:55.563Z,21.23
2019-01-21T09:30:37.160Z,26.00
2019-01-21T09:33:23.729Z,21.60
2019-01-21T09:36:17.876Z,23.87
2019-01-21T09:39:04.991Z,21.33
2019-01-21T09:41:51.507Z,21.13
2019-01-21T09:44:37.785Z,21.30
2019-01-21T09:47:05.173Z,20.53
2019-01-21T09:49:35.629Z,21.77
2019-01-21T09:52:06.225Z,22.77
2019-01-21T09:54:35.677Z,25.57
2019-01-21T09:57:05.265Z,21.90
2019-01-21T09:59:34.659Z,24.00
2019-01-21T10:02:04.691Z,23.03
2019-01-21T10:04:36.263Z,23.20
2019-01-21T10:07:30.225Z,22.17
2019-01-21T10:10:04.284Z,24.40
2019-01-21T10:12:35.850Z,22.90
2019-01-21T10:15:24.109Z,25.57
2019-01-21T10:18:16.859Z,27.30
2019-01-21T10:20:54.448Z,24.70
2019-01-21T10:23:28.629Z,24.17
2019-01-21T10:26:05.689Z,28.33
2019-01-21T10:28:37.241Z,25.83
2019-01-21T10:31:28.515Z,27.10
2019-01-21T10:34:14.914Z,23.53
2019-01-21T10:37:04.660Z,23.53
2019-01-21T10:39:52.655Z,26.80
2019-01-21T10:42:42.595Z,25.57
2019-01-21T10:45:19.627Z,24.47
2019-01-21T10:47:59.664Z,22.20
2019-01-21T10:50:37.103Z,25.83
2019-01-21T10:53:34.993Z,21.67
2019-01-21T10:56:18.239Z,24.17
2019-01-21T10:59:14.151Z,24.87
2019-01-21T11:01:57.146Z,25.53
2019-01-21T11:04:47.902Z,25.20
2019-01-21T11:07:35.801Z,24.53
2019-01-21T11:10:10.027Z,23.23
2019-01-21T11:12:58.271Z,24.37
2019-01-21T11:15:38.729Z,22.43
2019-01-21T11:18:13.154Z,24.33
2019-01-21T11:20:50.404Z,24.40
2019-01-21T11:23:37.100Z,21.27
2019-01-21T11:26:23.592Z,21.33
2019-01-21T11:29:06.951Z,25.30
2019-01-21T11:31:38.610Z,23.87
2019-01-21T11:34:46.896Z,20.40
2019-01-21T11:37:24.116Z,21.87
2019-01-21T11:40:01.162Z,21.63
2019-01-21T11:42:50.652Z,21.20
2019-01-21T11:45:48.845Z,25.13
2019-01-21T11:48:39.595Z,21.17
2019-01-21T11:51:38.363Z,17.67
2019-01-21T11:54:20.948Z,22.97
2019-01-21T11:57:09.023Z,20.50
2019-01-21T11:59:43.271Z,23.17
2019-01-21T12:02:17.370Z,17.70
2019-01-21T12:04:57.657Z,18.30
2019-01-21T12:07:47.072Z,18.43
2019-01-21T12:10:35.399Z,20.87
2019-01-21T12:13:18.976Z,23.17
2019-01-21T12:16:12.026Z,18.60
2019-01-21T12:18:46.475Z,17.83
2019-01-21T12:21:39.045Z,21.43
2019-01-21T12:24:10.629Z,16.80
2019-01-21T12:27:06.314Z,17.17
2019-01-21T12:29:46.663Z,20.77
2019-01-21T12:32:53.021Z,17.77
2019-01-21T12:35:52.116Z,20.13
2019-01-21T12:38:40.238Z,18.87
2019-01-21T12:41:51.708Z,18.67
2019-01-21T12:44:47.109Z,21.97
2019-01-21T12:47:21.395Z,16.83
2019-01-21T12:50:24.417Z,20.30
2019-01-21T12:53:07.533Z,20.53
2019-01-21T12:55:44.768Z,17.90
2019-01-21T12:58:16.398Z,19.30
2019-01-21T13:01:11.835Z,18.67
2019-01-21T13:03:52.172Z,21.43
2019-01-21T13:06:26.474Z,22.40
2019-01-21T13:09:16.458Z,22.10
2019-01-21T13:11:50.801Z,18.47
2019-01-21T13:14:52.577Z,20.03
2019-01-21T13:17:24.138Z,20.33
2019-01-21T13:20:13.613Z,20.87
2019-01-21T13:22:51.304Z,20.83
2019-01-21T13:25:18.443Z,19.47
2019-01-21T13:28:06.719Z,21.00
2019-01-21T13:30:53.550Z,19.00
2019-01-21T13:33:37.016Z,20.70
2019-01-21T13:36:14.363Z,26.77
2019-01-21T13:38:51.756Z,18.93
2019-01-21T13:41:26.252Z,21.23
2019-01-21T13:44:00.675Z,19.03
2019-01-21T13:46:34.970Z,17.00
2019-01-21T13:49:12.322Z,25.13
2019-01-21T13:51:56.089Z,18.50
2019-01-21T13:54:45.540Z,20.37
2019-01-21T13:57:17.168Z,21.77
2019-01-21T14:00:00.638Z,20.90
2019-01-21T14:02:38.044Z,22.30
2019-01-21T14:05:20.292Z,19.77
2019-01-21T14:08:12.815Z,19.10
2019-01-21T14:10:58.678Z,19.07
2019-01-21T14:13:35.548Z,20.43
2019-01-21T14:16:12.920Z,19.93
2019-01-21T14:19:02.449Z,21.43
2019-01-21T14:21:36.624Z,25.90
2019-01-21T14:24:29.280Z,19.23
2019-01-21T14:27:17.236Z,23.80
2019-01-21T14:30:00.961Z,18.63
2019-01-21T14:32:35.251Z,20.83
2019-01-21T14:35:06.792Z,19.83
2019-01-21T14:38:05.710Z,22.93
2019-01-21T14:40:43.148Z,20.57
2019-01-21T14:43:17.502Z,20.63
2019-01-21T14:45:58.216Z,20.13
2019-01-21T14:48:39.102Z,21.57
2019-01-21T14:51:13.789Z,22.40
2019-01-21T14:54:00.286Z,19.07
2019-01-21T14:56:52.991Z,21.17
2019-01-21T14:59:30.718Z,17.17
2019-01-21T15:02:10.908Z,17.67
2019-01-21T15:04:51.186Z,19.33
2019-01-21T15:07:28.707Z,19.13
2019-01-21T15:10:25.927Z,18.33
2019-01-21T15:13:09.573Z,17.23
2019-01-21T15:15:43.951Z,15.43
2019-01-21T15:18:22.607Z,18.57
2019-01-21T15:20:57.754Z,14.93
2019-01-21T15:23:33.265Z,19.20
2019-01-21T15:26:10.579Z,15.73
2019-01-21T15:28:44.982Z,18.97
2019-01-21T15:31:36.025Z,18.33
2019-01-21T15:34:07.714Z,17.37
2019-01-21T15:36:53.134Z,17.43
2019-01-21T15:39:33.591Z,16.20
2019-01-21T15:42:20.288Z,18.03
2019-01-21T15:45:09.341Z,21.37
2019-01-21T15:47:41.226Z,20.47
2019-01-21T15:50:24.994Z,16.97
2019-01-21T15:53:20.616Z,19.73
2019-01-21T15:55:52.284Z,16.50
2019-01-21T15:58:35.846Z,18.20
2019-01-21T16:01:35.905Z,18.50
2019-01-21T16:04:19.437Z,19.50
2019-01-21T16:06:52.602Z,20.73
2019-01-21T16:09:36.349Z,21.43
2019-01-21T16:12:16.680Z,19.00
2019-01-21T16:15:12.284Z,17.80
2019-01-21T16:17:52.597Z,18.17
2019-01-21T16:20:24.485Z,18.20
2019-01-21T16:22:56.101Z,20.93
2019-01-21T16:25:27.960Z,16.83
2019-01-21T16:28:14.889Z,18.27
2019-01-21T16:30:58.663Z,23.60
2019-01-21T16:33:54.413Z,22.23
2019-01-21T16:36:34.888Z,17.00
2019-01-21T16:39:18.265Z,16.17
2019-01-21T16:41:58.480Z,18.20
2019-01-21T16:44:27.114Z,16.50
2019-01-21T16:46:55.707Z,16.07
2019-01-21T16:49:24.449Z,20.77
2019-01-21T16:51:53.028Z,17.20
2019-01-21T16:54:21.708Z,18.23
2019-01-21T16:56:50.196Z,18.37
2019-01-21T16:59:18.724Z,18.60
2019-01-21T17:01:47.224Z,18.97
2019-01-21T17:04:15.852Z,18.93
2019-01-21T17:06:44.547Z,18.70
2019-01-21T17:09:13.185Z,18.83
2019-01-21T17:11:41.646Z,18.53
2019-01-21T17:14:11.315Z,20.00
2019-01-21T17:16:39.845Z,20.80
2019-01-21T17:19:08.727Z,19.30
2019-01-21T17:21:37.445Z,20.83
2019-01-21T17:24:06.132Z,20.03
2019-01-21T17:26:34.635Z,17.97
2019-01-21T17:29:05.837Z,19.87
2019-01-21T17:31:34.318Z,20.57
2019-01-21T17:34:02.901Z,25.33
2019-01-21T17:36:31.457Z,24.43
2019-01-21T17:38:59.924Z,24.37
2019-01-21T17:41:28.485Z,20.63
2019-01-21T17:43:56.952Z,20.23
2019-01-21T17:46:25.508Z,20.40
2019-01-21T17:48:53.962Z,21.47
2019-01-21T17:51:22.610Z,20.67
2019-01-21T17:53:53.481Z,21.33
2019-01-21T17:56:21.591Z,20.40
2019-01-21T17:58:50.246Z,20.43
2019-01-21T18:01:18.847Z,22.50
2019-01-21T18:03:47.385Z,18.73
2019-01-21T18:06:15.945Z,23.57
2019-01-21T18:08:44.498Z,22.63
2019-01-21T18:11:13.117Z,23.77
2019-01-21T18:13:41.666Z,22.30
2019-01-21T18:16:10.287Z,23.17
2019-01-21T18:18:38.919Z,25.10
2019-01-21T18:21:07.602Z,22.07
2019-01-21T18:23:36.205Z,23.13
2019-01-21T18:26:05.160Z,23.33
2019-01-21T18:28:37.777Z,25.17
2019-01-21T18:31:06.465Z,25.60
2019-01-21T18:33:35.032Z,24.33
2019-01-21T18:36:03.686Z,23.03
2019-01-21T18:38:32.258Z,24.17
2019-01-21T18:41:00.744Z,25.73
2019-01-21T18:43:29.296Z,29.50
2019-01-21T18:45:57.843Z,28.07
2019-01-21T18:48:26.406Z,26.97
2019-01-21T18:50:55.025Z,27.37
2019-01-21T18:53:23.508Z,25.23
2019-01-21T18:55:52.208Z,29.83
2019-01-21T18:58:20.663Z,27.27
2019-01-21T19:00:49.237Z,27.03
2019-01-21T19:03:17.752Z,27.37
2019-01-21T19:05:46.329Z,30.10
2019-01-21T19:08:14.928Z,29.23
2019-01-21T19:10:43.482Z,33.60
2019-01-21T19:13:12.130Z,24.90
2019-01-21T19:15:40.780Z,28.37
2019-01-21T19:18:09.389Z,31.90
2019-01-21T19:20:38.892Z,26.00
2019-01-21T19:23:07.509Z,32.77
2019-01-21T19:25:36.034Z,26.13
2019-01-21T19:28:04.754Z,30.70
2019-01-21T19:30:33.301Z,27.53
2019-01-21T19:33:01.777Z,27.67
2019-01-21T19:35:32.616Z,27.87
2019-01-21T19:38:01.329Z,33.20
2019-01-21T19:40:29.835Z,32.67
2019-01-21T19:42:58.470Z,28.83
2019-01-21T19:45:28.766Z,27.17
2019-01-21T19:47:57.312Z,28.67
2019-01-21T19:50:28.720Z,27.27
2019-01-21T19:52:57.345Z,29.20
2019-01-21T19:55:31.745Z,26.43
2019-01-21T19:58:00.509Z,27.87
2019-01-21T20:00:29.376Z,27.53
2019-01-21T20:02:57.980Z,25.80
2019-01-21T20:05:26.531Z,27.00
2019-01-21T20:07:55.076Z,32.83
2019-01-21T20:10:25.847Z,26.20
2019-01-21T20:12:54.462Z,26.20
2019-01-21T20:15:23.092Z,25.60
2019-01-21T20:17:51.641Z,28.20
2019-01-21T20:20:32.083Z,25.77
2019-01-21T20:23:00.635Z,28.43
2019-01-21T20:25:29.183Z,26.63
2019-01-21T20:27:57.679Z,26.17
2019-01-21T20:30:26.461Z,24.43
2019-01-21T20:32:57.928Z,29.90
2019-01-21T20:35:26.475Z,29.83
2019-01-21T20:37:55.037Z,26.73
2019-01-21T20:40:26.052Z,29.53
2019-01-21T20:42:54.784Z,28.23
2019-01-21T20:45:23.451Z,32.57
2019-01-21T20:47:51.991Z,26.93
2019-01-21T20:50:25.692Z,29.67
2019-01-21T20:52:54.361Z,33.03
2019-01-21T20:55:24.723Z,31.30
2019-01-21T20:57:53.342Z,29.80
2019-01-21T21:00:24.465Z,29.63
2019-01-21T21:02:54.544Z,26.47
2019-01-21T21:05:23.765Z,32.37
2019-01-21T21:07:52.368Z,30.23
2019-01-21T21:10:20.981Z,28.53
2019-01-21T21:12:49.522Z,27.43
2019-01-21T21:15:26.809Z,27.23
2019-01-21T21:17:55.418Z,30.00
2019-01-21T21:20:24.029Z,31.83
2019-01-21T21:22:52.674Z,27.77
2019-01-21T21:25:21.711Z,29.57
2019-01-21T21:27:50.264Z,28.53
2019-01-21T21:30:21.631Z,34.23
2019-01-21T21:32:50.268Z,30.27
2019-01-21T21:35:18.943Z,28.37
2019-01-21T21:37:47.551Z,33.83
2019-01-21T21:40:18.779Z,29.20
2019-01-21T21:42:47.396Z,29.27
2019-01-21T21:45:17.887Z,30.10
2019-01-21T21:47:46.716Z,30.97
2019-01-21T21:50:18.110Z,31.00
2019-01-21T21:52:46.732Z,33.50
2019-01-21T21:55:15.519Z,33.43
2019-01-21T21:57:44.069Z,34.30
2019-01-21T22:00:16.018Z,35.37
2019-01-21T22:02:44.654Z,31.20
2019-01-21T22:05:13.450Z,31.73
2019-01-21T22:07:42.032Z,34.97
2019-01-21T22:10:13.468Z,38.03
2019-01-21T22:12:42.094Z,30.47
2019-01-21T22:15:13.281Z,36.73
2019-01-21T22:17:41.831Z,38.57
2019-01-21T22:20:13.654Z,33.70
2019-01-21T22:22:42.296Z,37.23
2019-01-21T22:25:10.912Z,38.27
2019-01-21T22:27:39.476Z,34.53
2019-01-21T22:30:16.913Z,37.17
2019-01-21T22:32:45.640Z,35.37
2019-01-21T22:35:14.364Z,34.27
2019-01-21T22:37:43.100Z,35.20
2019-01-21T22:40:14.303Z,36.10
2019-01-21T22:42:42.905Z,37.40
2019-01-21T22:45:12.990Z,38.80
2019-01-21T22:47:41.731Z,35.47
2019-01-21T22:50:12.467Z,38.40
2019-01-21T22:52:42.223Z,36.43
2019-01-21T22:55:13.134Z,36.37
2019-01-21T22:57:41.867Z,39.93
2019-01-21T23:00:19.492Z,36.80
2019-01-21T23:02:48.115Z,35.97
2019-01-21T23:05:16.918Z,39.30
2019-01-21T23:07:45.474Z,35.00
2019-01-21T23:10:14.147Z,34.67
2019-01-21T23:12:42.722Z,36.00
2019-01-21T23:15:11.768Z,36.23
2019-01-21T23:17:40.330Z,37.97
2019-01-21T23:20:10.594Z,42.03
2019-01-21T23:22:39.131Z,36.53
2019-01-21T23:25:08.133Z,33.80
2019-01-21T23:27:36.680Z,37.77
2019-01-21T23:30:08.326Z,33.13
2019-01-21T23:32:36.856Z,37.13
2019-01-21T23:35:06.048Z,40.90
2019-01-21T23:37:34.624Z,36.87
2019-01-21T23:40:03.385Z,36.97
2019-01-21T23:42:31.924Z,39.47
2019-01-21T23:45:00.389Z,32.83
2019-01-21T23:47:28.937Z,34.37
2019-01-21T23:49:57.523Z,35.23
2019-01-21T23:52:26.048Z,38.97
2019-01-21T23:54:55.141Z,38.83
2019-01-21T23:57:23.704Z,37.73
2019-01-21T23:59:52.257Z,40.77
